Time;durP1;ratioP1;P1;durP2;ratioP2;P2;SDS_P1;SDS_P2;PMS_P1;PMS_P2;Temp;Humidity;BMP_temperature;BMP_pressure;BME280_temperature;BME280_humidity;BME280_pressure;Samples;Min_cycle;Max_cycle;Signal;HPM_P1;HPM_P2
2024/02/02 00:00:28;;;;;;;23.50;5.20;;;;;;;8.79;61.19;103076.72;4966670;28;123259;-84
2024/02/02 00:02:56;;;;;;;19.83;5.30;;;;;;;8.80;61.27;103093.44;4962510;28;114366;-84
2024/02/02 00:05:23;;;;;;;21.70;5.35;;;;;;;8.81;61.12;103087.28;4972417;28;113254;-84
2024/02/02 00:07:51;;;;;;;25.67;5.57;;;;;;;8.82;61.49;103081.16;4961643;28;125962;-84
2024/02/02 00:10:18;;;;;;;21.75;5.07;;;;;;;8.82;61.32;103078.50;4972270;28;124903;-84
2024/02/02 00:12:45;;;;;;;20.90;5.28;;;;;;;8.83;61.24;103061.75;4967920;28;113377;-84
2024/02/02 00:15:12;;;;;;;18.20;5.22;;;;;;;8.84;61.20;103052.97;4965106;28;113551;-84
2024/02/02 00:17:39;;;;;;;19.15;5.40;;;;;;;8.86;61.50;103053.81;4984807;28;124925;-82
2024/02/02 00:20:08;;;;;;;19.88;5.40;;;;;;;8.89;61.38;103052.06;4972084;28;122970;-83
2024/02/02 00:22:36;;;;;;;19.38;5.80;;;;;;;8.91;61.02;103049.38;4952635;28;112123;-84
2024/02/02 00:25:03;;;;;;;24.45;5.90;;;;;;;8.92;61.51;103059.09;4967123;28;112151;-84
2024/02/02 00:27:30;;;;;;;20.55;5.93;;;;;;;8.95;61.34;103067.03;4970428;28;123337;-84
2024/02/02 00:29:58;;;;;;;25.42;6.18;;;;;;;8.95;61.05;103059.97;4992562;28;122138;-83
2024/02/02 00:32:25;;;;;;;23.90;6.32;;;;;;;8.97;61.01;103062.63;4970961;28;115160;-83
2024/02/02 00:34:52;;;;;;;16.58;5.47;;;;;;;8.98;61.09;103064.34;4985046;28;114042;-84
2024/02/02 00:37:19;;;;;;;20.15;5.65;;;;;;;8.99;61.08;103066.13;4962543;28;123575;-84
2024/02/02 00:39:47;;;;;;;21.95;6.00;;;;;;;9.00;61.17;103049.38;4969098;28;124341;-84
2024/02/02 00:42:15;;;;;;;21.83;6.10;;;;;;;9.01;60.90;103051.13;4954952;28;114551;-84
2024/02/02 00:44:42;;;;;;;20.80;6.35;;;;;;;9.03;60.87;103054.66;4955579;28;114112;-84
2024/02/02 00:47:09;;;;;;;23.63;5.75;;;;;;;9.05;60.82;103052.00;4970466;28;124726;-84
2024/02/02 00:49:36;;;;;;;30.05;6.47;;;;;;;9.05;61.00;103042.31;4962584;28;124324;-84
2024/02/02 00:52:04;;;;;;;23.90;5.78;;;;;;;9.06;61.03;103030.88;4969466;28;114370;-84
2024/02/02 00:54:31;;;;;;;24.38;6.28;;;;;;;9.06;60.79;103033.50;4965662;28;115573;-83
2024/02/02 00:56:59;;;;;;;15.60;5.78;;;;;;;9.06;60.64;103029.97;4966340;28;124706;-83
2024/02/02 00:59:26;;;;;;;21.67;6.07;;;;;;;9.06;60.84;103033.50;4982266;28;122185;-83
2024/02/02 01:01:53;;;;;;;19.35;6.20;;;;;;;9.07;60.99;103037.91;4982089;28;113904;-84
2024/02/02 01:04:20;;;;;;;20.85;5.60;;;;;;;9.08;61.07;103037.03;4948787;28;113254;-84
2024/02/02 01:06:47;;;;;;;28.15;6.30;;;;;;;9.08;60.94;103050.25;4963754;28;125085;-83
2024/02/02 01:09:15;;;;;;;17.73;6.22;;;;;;;9.10;61.04;103052.88;4964160;28;123266;-84
2024/02/02 01:11:43;;;;;;;19.88;5.50;;;;;;;9.12;60.86;103054.63;4968975;28;115031;-84
2024/02/02 01:14:10;;;;;;;22.92;6.15;;;;;;;9.13;60.79;103039.63;4960083;28;114572;-84
2024/02/02 01:16:37;;;;;;;19.95;6.15;;;;;;;9.13;60.53;103040.50;4962335;28;126147;-84
2024/02/02 01:19:04;;;;;;;25.60;6.30;;;;;;;9.13;60.79;103044.94;4985290;28;123507;-84
2024/02/02 01:21:33;;;;;;;22.10;6.30;;;;;;;9.13;60.87;103045.78;4962439;28;116229;-84
2024/02/02 01:24:01;;;;;;;21.80;6.57;;;;;;;9.13;60.56;103040.50;4975552;28;115982;-85
2024/02/02 01:26:30;;;;;;;21.88;6.15;;;;;;;9.15;60.85;103051.09;4962651;28;126083;-85
2024/02/02 01:28:57;;;;;;;27.33;6.85;;;;;;;9.15;60.75;103038.78;4964505;28;124316;-85
2024/02/02 01:31:24;;;;;;;18.55;6.30;;;;;;;9.16;60.89;103029.94;4967618;28;114177;-85
2024/02/02 01:33:51;;;;;;;22.80;6.78;;;;;;;9.18;60.96;103015.84;4967790;28;115417;-85
2024/02/02 01:36:19;;;;;;;20.67;6.38;;;;;;;9.18;60.52;103021.13;4962347;28;124433;-85
2024/02/02 01:38:50;;;;;;;17.70;6.30;;;;;;;9.19;60.59;103012.31;4977787;28;125140;-85
2024/02/02 01:41:17;;;;;;;26.52;7.18;;;;;;;9.20;60.82;103003.50;4966957;28;116204;-85
2024/02/02 01:43:45;;;;;;;23.52;7.32;;;;;;;9.20;60.85;102998.22;4962688;28;113285;-85
2024/02/02 01:46:12;;;;;;;23.60;7.15;;;;;;;9.20;60.96;103006.13;4949414;28;124972;-85
2024/02/02 01:48:39;;;;;;;18.45;7.35;;;;;;;9.21;60.58;103005.25;4969236;28;124823;-85
2024/02/02 01:51:07;;;;;;;22.70;7.50;;;;;;;9.22;60.66;103001.72;4964394;28;114834;-85
2024/02/02 01:53:35;;;;;;;25.33;7.30;;;;;;;9.22;60.80;103001.72;4962629;28;115692;-82
2024/02/02 01:56:04;;;;;;;25.00;7.05;;;;;;;9.22;60.79;102999.94;4971536;28;123530;-84
2024/02/02 01:58:31;;;;;;;23.63;7.65;;;;;;;9.22;60.68;102996.44;4968412;28;123774;-84
2024/02/02 02:00:59;;;;;;;20.33;7.68;;;;;;;9.21;60.53;103005.25;4967307;28;113767;-84
2024/02/02 02:03:27;;;;;;;21.85;7.32;;;;;;;9.22;60.54;103007.88;4957405;28;112600;-84
2024/02/02 02:05:54;;;;;;;23.98;6.70;;;;;;;9.24;60.49;103005.22;4948755;28;125097;-84
2024/02/02 02:08:22;;;;;;;26.73;7.32;;;;;;;9.24;60.67;103007.88;4964504;28;123848;-83
2024/02/02 02:10:49;;;;;;;23.30;7.97;;;;;;;9.24;60.77;102995.53;4953206;28;115396;-84
2024/02/02 02:13:17;;;;;;;24.58;7.53;;;;;;;9.25;60.57;102980.53;4970039;28;116491;-84
2024/02/02 02:15:44;;;;;;;24.98;7.13;;;;;;;9.24;60.54;102962.94;4945378;28;125403;-85
2024/02/02 02:18:12;;;;;;;19.38;6.95;;;;;;;9.24;60.73;102958.50;4964399;28;124478;-85
2024/02/02 02:20:40;;;;;;;26.98;7.28;;;;;;;9.24;60.54;102957.63;4949169;28;114444;-85
2024/02/02 02:23:09;;;;;;;25.75;7.50;;;;;;;9.26;60.83;102955.88;4941142;28;114400;-85
2024/02/02 02:25:36;;;;;;;25.35;7.47;;;;;;;9.27;61.06;102936.47;4963941;28;126088;-85
2024/02/02 02:28:03;;;;;;;25.70;7.60;;;;;;;9.28;60.81;102948.81;4966635;28;124689;-85
2024/02/02 02:30:31;;;;;;;23.40;6.93;;;;;;;9.28;60.63;102954.09;4968886;28;114041;-85
2024/02/02 02:32:58;;;;;;;24.00;6.55;;;;;;;9.27;60.51;102947.06;4967517;28;116319;-85
2024/02/02 02:35:26;;;;;;;21.10;7.20;;;;;;;9.27;60.54;102947.06;4946658;28;125587;-85
2024/02/02 02:37:53;;;;;;;23.08;7.22;;;;;;;9.28;60.49;102940.88;4964925;28;124658;-85
2024/02/02 02:40:20;;;;;;;19.95;6.93;;;;;;;9.29;60.41;102929.41;4960905;28;114809;-85
2024/02/02 02:42:50;;;;;;;22.55;6.65;;;;;;;9.29;60.51;102929.41;4963857;28;114674;-85
2024/02/02 02:45:17;;;;;;;18.23;6.72;;;;;;;9.29;60.51;102927.66;4950802;28;123223;-85
2024/02/02 02:47:45;;;;;;;28.77;7.63;;;;;;;9.31;60.52;102932.94;4968437;28;124970;-85
2024/02/02 02:50:12;;;;;;;31.15;7.05;;;;;;;9.31;60.62;102952.31;4969290;28;113198;-85
2024/02/02 02:52:39;;;;;;;18.83;6.28;;;;;;;9.32;60.45;102942.59;4975199;28;115038;-85
2024/02/02 02:55:07;;;;;;;26.83;6.38;;;;;;;9.33;60.49;102949.66;4988298;28;123811;-83
2024/02/02 02:57:34;;;;;;;20.27;6.22;;;;;;;9.34;60.50;102948.75;5004287;28;123249;-84
2024/02/02 03:00:02;;;;;;;18.67;6.50;;;;;;;9.33;60.01;102947.00;4991354;28;114646;-84
2024/02/02 03:02:29;;;;;;;23.92;6.32;;;;;;;9.34;60.25;102943.47;4974901;28;114349;-84
2024/02/02 03:04:57;;;;;;;17.80;6.07;;;;;;;9.35;60.32;102932.00;4992508;28;124061;-84
2024/02/02 03:07:24;;;;;;;20.88;6.07;;;;;;;9.35;60.17;102924.09;4992430;28;125921;-84
2024/02/02 03:09:51;;;;;;;16.92;5.57;;;;;;;9.35;60.29;102908.22;4990970;28;114766;-83
2024/02/02 03:12:18;;;;;;;20.75;5.82;;;;;;;9.34;60.10;102911.72;4977197;28;113028;-84
2024/02/02 03:14:46;;;;;;;21.63;6.03;;;;;;;9.33;60.34;102921.44;4988383;28;124950;-84
2024/02/02 03:17:13;;;;;;;16.02;5.55;;;;;;;9.33;60.31;102904.69;4992310;28;124333;-84
2024/02/02 03:19:40;;;;;;;23.50;5.60;;;;;;;9.33;60.25;102905.56;4968526;28;114766;-85
2024/02/02 03:22:08;;;;;;;19.10;5.45;;;;;;;9.33;59.98;102895.00;4977110;28;113106;-85
2024/02/02 03:24:35;;;;;;;17.48;5.75;;;;;;;9.32;59.84;102902.94;4955619;28;122364;-85
2024/02/02 03:27:02;;;;;;;23.50;5.80;;;;;;;9.32;60.31;102898.53;4967961;28;124904;-85
2024/02/02 03:29:30;;;;;;;18.52;5.43;;;;;;;9.31;60.04;102890.63;4970261;28;113814;-85
2024/02/02 03:31:57;;;;;;;20.92;4.80;;;;;;;9.31;59.97;102890.63;4968089;28;115038;-85
2024/02/02 03:34:24;;;;;;;22.65;5.10;;;;;;;9.31;59.97;102880.03;4968055;28;124953;-84
2024/02/02 03:36:52;;;;;;;17.25;5.47;;;;;;;9.34;59.90;102880.00;4972027;28;124848;-85
2024/02/02 03:39:19;;;;;;;19.02;5.32;;;;;;;9.32;60.15;102876.50;4969471;28;113189;-85
2024/02/02 03:41:46;;;;;;;21.48;5.47;;;;;;;9.33;59.85;102883.56;4971109;28;113174;-85
2024/02/02 03:44:13;;;;;;;21.17;5.07;;;;;;;9.32;59.97;102879.13;4969361;28;124231;-85
2024/02/02 03:46:40;;;;;;;16.15;5.10;;;;;;;9.31;59.97;102886.19;4961429;28;123915;-85
2024/02/02 03:49:07;;;;;;;16.52;5.07;;;;;;;9.30;59.64;102883.56;4950756;28;115187;-85
2024/02/02 03:51:35;;;;;;;19.88;4.90;;;;;;;9.29;59.72;102881.81;4962957;28;116140;-85
2024/02/02 03:54:04;;;;;;;17.88;5.07;;;;;;;9.29;59.76;102882.69;4951528;28;123294;-84
2024/02/02 03:56:31;;;;;;;19.17;5.03;;;;;;;9.28;59.59;102880.06;4968043;28;125418;-86
2024/02/02 03:58:59;;;;;;;18.48;5.30;;;;;;;9.27;59.62;102873.03;4970156;28;114152;-85
2024/02/02 04:01:26;;;;;;;26.92;6.07;;;;;;;9.25;59.96;102858.91;4940735;28;115133;-85
2024/02/02 04:03:54;;;;;;;16.70;4.95;;;;;;;9.25;59.41;102859.81;4941719;28;125745;-85
2024/02/02 04:06:21;;;;;;;17.90;5.20;;;;;;;9.24;59.69;102865.97;4948389;28;124631;-84
2024/02/02 04:08:48;;;;;;;17.17;5.07;;;;;;;9.22;59.61;102864.25;4967597;28;114307;-85
2024/02/02 04:11:15;;;;;;;17.65;4.57;;;;;;;9.19;59.44;102870.41;4967108;28;113932;-85
2024/02/02 04:13:43;;;;;;;27.52;4.97;;;;;;;9.19;59.49;102861.59;4944833;28;122212;-85
2024/02/02 04:16:10;;;;;;;18.27;5.47;;;;;;;9.17;59.69;102866.91;4959259;28;122826;-85
2024/02/02 04:18:37;;;;;;;23.95;5.68;;;;;;;9.16;59.52;102866.03;4967612;28;114471;-85
2024/02/02 04:21:05;;;;;;;24.50;5.15;;;;;;;9.15;59.54;102864.28;4946794;28;115317;-85
2024/02/02 04:23:32;;;;;;;23.85;5.93;;;;;;;9.14;59.67;102862.50;4966655;28;125028;-85
2024/02/02 04:25:59;;;;;;;22.55;5.70;;;;;;;9.15;59.55;102858.09;4968456;28;125765;-85
2024/02/02 04:28:26;;;;;;;20.17;5.13;;;;;;;9.14;59.83;102867.81;4963180;28;114474;-85
2024/02/02 04:30:54;;;;;;;17.15;4.75;;;;;;;9.15;59.85;102868.66;4964560;28;114909;-85
2024/02/02 04:33:21;;;;;;;20.95;5.05;;;;;;;9.14;59.63;102867.81;4965930;28;125035;-85
2024/02/02 04:35:48;;;;;;;16.65;4.78;;;;;;;9.12;59.68;102859.00;4949548;28;123976;-84
2024/02/02 04:38:17;;;;;;;21.75;4.93;;;;;;;9.13;59.56;102860.75;4958262;28;115350;-85
2024/02/02 04:40:46;;;;;;;16.15;4.80;;;;;;;9.12;59.92;102864.28;4959778;28;116278;-84
2024/02/02 04:43:13;;;;;;;19.23;4.88;;;;;;;9.12;59.62;102861.66;4965749;28;125772;-85
2024/02/02 04:45:43;;;;;;;19.58;4.68;;;;;;;9.12;59.61;102859.00;4958056;28;125507;-86
2024/02/02 04:48:11;;;;;;;20.20;5.20;;;;;;;9.11;59.72;102851.94;4965666;28;114682;-83
2024/02/02 04:50:38;;;;;;;17.23;5.13;;;;;;;9.13;59.68;102850.16;4947326;28;115570;-84
2024/02/02 04:53:06;;;;;;;22.13;5.20;;;;;;;9.13;59.63;102838.72;4963981;28;125862;-84
2024/02/02 04:55:33;;;;;;;17.88;4.88;;;;;;;9.12;59.68;102837.84;4947969;28;126249;-84
2024/02/02 04:58:01;;;;;;;19.83;5.25;;;;;;;9.14;59.77;102846.66;4966510;28;113978;-84
2024/02/02 05:00:28;;;;;;;17.42;5.00;;;;;;;9.15;59.66;102845.78;4961950;28;115395;-83
2024/02/02 05:02:55;;;;;;;14.88;4.80;;;;;;;9.15;59.51;102839.59;4960237;28;127887;-84
2024/02/02 05:05:22;;;;;;;18.15;5.00;;;;;;;9.18;59.80;102833.44;4965782;28;125803;-83
2024/02/02 05:07:50;;;;;;;18.27;4.78;;;;;;;9.18;59.61;102820.22;4962431;28;114531;-83
2024/02/02 05:10:17;;;;;;;21.30;4.55;;;;;;;9.19;59.68;102821.94;4969056;28;114512;-83
2024/02/02 05:12:44;;;;;;;21.80;4.90;;;;;;;9.18;59.86;102812.28;4977547;28;124358;-83
2024/02/02 05:15:11;;;;;;;16.25;4.47;;;;;;;9.18;59.32;102812.28;4958323;28;124625;-84
2024/02/02 05:17:39;;;;;;;15.80;4.53;;;;;;;9.18;59.56;102820.22;4974287;28;113207;-83
2024/02/02 05:20:07;;;;;;;14.07;4.60;;;;;;;9.18;59.59;102809.63;4960977;28;112417;-83
2024/02/02 05:22:34;;;;;;;17.70;4.32;;;;;;;9.18;59.68;102799.06;4974441;28;123860;-83
2024/02/02 05:25:02;;;;;;;16.65;4.72;;;;;;;9.16;59.68;102807.88;4985791;28;122839;-83
2024/02/02 05:27:29;;;;;;;14.50;4.40;;;;;;;9.18;59.56;102804.34;4960224;28;116147;-83
2024/02/02 05:29:56;;;;;;;14.63;4.47;;;;;;;9.18;59.59;102799.06;4959785;28;115073;-83
2024/02/02 05:32:24;;;;;;;16.83;4.40;;;;;;;9.15;59.35;102795.56;4942612;28;123522;-86
2024/02/02 05:34:52;;;;;;;19.42;4.43;;;;;;;9.15;59.46;102803.47;4979839;28;125827;-85
2024/02/02 05:37:19;;;;;;;16.13;4.72;;;;;;;9.13;59.65;102792.00;4968728;28;113876;-85
2024/02/02 05:39:46;;;;;;;16.45;4.25;;;;;;;9.13;59.61;102788.50;4967603;28;115040;-85
2024/02/02 05:42:14;;;;;;;12.52;4.32;;;;;;;9.13;59.39;102786.72;4970581;28;125294;-85
2024/02/02 05:44:42;;;;;;;19.23;4.60;;;;;;;9.10;59.36;102775.34;4959458;28;125310;-84
2024/02/02 05:47:12;;;;;;;12.98;3.92;;;;;;;9.10;59.40;102781.50;4940951;28;113500;-84
2024/02/02 05:49:40;;;;;;;16.45;4.50;;;;;;;9.07;59.41;102770.94;4960107;28;115647;-85
2024/02/02 05:52:09;;;;;;;20.27;4.63;;;;;;;9.07;59.54;102776.22;4967116;28;123117;-84
2024/02/02 05:54:36;;;;;;;19.05;4.57;;;;;;;9.05;59.17;102778.00;4964738;28;124361;-85
2024/02/02 05:57:03;;;;;;;16.13;4.53;;;;;;;9.04;59.55;102765.69;4956753;28;114772;-84
2024/02/02 05:59:31;;;;;;;13.00;4.10;;;;;;;9.04;59.34;102760.41;4959736;28;113140;-85
2024/02/02 06:01:58;;;;;;;14.50;4.05;;;;;;;9.03;59.35;102763.91;4981421;28;123615;-85
2024/02/02 06:04:25;;;;;;;19.35;3.83;;;;;;;9.02;59.24;102751.56;4958823;28;123931;-85
2024/02/02 06:06:53;;;;;;;16.60;4.15;;;;;;;9.00;59.23;102766.56;4949408;28;114884;-85
2024/02/02 06:09:20;;;;;;;15.15;4.18;;;;;;;8.98;59.48;102757.78;4949042;28;115489;-85
2024/02/02 06:11:47;;;;;;;15.52;4.20;;;;;;;8.95;59.35;102760.47;4946896;28;124971;-85
2024/02/02 06:14:14;;;;;;;16.90;4.10;;;;;;;8.95;59.53;102760.47;4965456;28;123004;-85
2024/02/02 06:16:41;;;;;;;17.67;4.32;;;;;;;8.93;59.48;102762.25;4946749;28;115539;-85
2024/02/02 06:19:08;;;;;;;13.43;3.55;;;;;;;8.91;59.41;102761.34;4965149;28;116506;-83
2024/02/02 06:21:36;;;;;;;17.00;4.10;;;;;;;8.90;59.53;102768.41;4963570;28;124596;-83
2024/02/02 06:24:04;;;;;;;17.30;4.10;;;;;;;8.90;59.62;102783.41;4947710;28;122347;-83
2024/02/02 06:26:31;;;;;;;18.08;4.65;;;;;;;8.89;59.61;102786.91;4964515;28;114074;-84
2024/02/02 06:28:58;;;;;;;19.75;4.43;;;;;;;8.88;59.53;102780.75;4952266;28;115994;-85
2024/02/02 06:31:26;;;;;;;16.80;3.80;;;;;;;8.88;59.54;102785.16;4964448;28;124135;-85
2024/02/02 06:33:53;;;;;;;20.23;4.43;;;;;;;8.87;59.46;102789.59;4968089;28;123169;-85
2024/02/02 06:36:26;;;;;;;14.57;4.28;;;;;;;8.86;59.46;102795.75;4966006;28;114885;-85
2024/02/02 06:38:57;;;;;;;17.10;3.60;;;;;;;8.85;59.44;102795.75;4961860;28;114877;-85
2024/02/02 06:41:24;;;;;;;15.70;3.90;;;;;;;8.84;59.43;102799.28;4963739;28;125767;-85
2024/02/02 06:43:51;;;;;;;13.52;3.17;;;;;;;8.83;59.44;102805.44;4942468;28;124025;-85
2024/02/02 06:46:19;;;;;;;14.32;3.85;;;;;;;8.82;59.12;102804.59;4947459;28;114363;-85
2024/02/02 06:48:47;;;;;;;16.73;3.60;;;;;;;8.81;59.65;102804.59;4963270;28;113162;-85
2024/02/02 06:51:15;;;;;;;16.08;3.38;;;;;;;8.78;59.67;102805.50;4957396;28;124380;-85
2024/02/02 06:53:43;;;;;;;9.35;2.33;;;;;;;8.77;59.63;102804.59;4949686;28;124715;-85
2024/02/02 06:56:32;;;;;;;8.23;2.13;;;;;;;8.75;59.48;102811.66;4965966;28;115778;-85
2024/02/02 06:58:59;;;;;;;8.43;2.28;;;;;;;8.74;59.81;102809.91;4969184;28;115156;-85
2024/02/02 07:01:27;;;;;;;7.88;2.20;;;;;;;8.74;59.55;102804.63;4969821;28;122415;-85
2024/02/02 07:03:55;;;;;;;10.82;2.40;;;;;;;8.73;59.62;102808.13;4946890;28;125987;-82
2024/02/02 07:06:22;;;;;;;7.80;2.03;;;;;;;8.74;59.54;102816.97;4965305;28;114612;-82
2024/02/02 07:08:50;;;;;;;7.70;2.53;;;;;;;8.74;59.59;102809.91;4968973;28;114879;-85
2024/02/02 07:11:45;;;;;;;10.50;2.40;;;;;;;8.74;59.71;102814.34;4948292;28;125403;-82
2024/02/02 07:14:42;;;;;;;6.60;1.90;;;;;;;8.73;59.78;102802.84;4965791;28;123979;-84
2024/02/02 07:17:36;;;;;;;6.95;2.10;;;;;;;8.73;59.78;102802.84;4988552;28;113455;-84
2024/02/02 07:20:38;;;;;;;14.57;2.67;;;;;;;8.73;60.00;102807.28;4973917;28;112692;-84
2024/02/02 07:23:06;;;;;;;12.30;2.30;;;;;;;8.71;59.48;102804.63;4946907;28;125700;-83
2024/02/02 07:25:38;;;;;;;9.50;2.05;;;;;;;8.73;59.75;102802.00;4968565;28;124370;-84
2024/02/02 07:28:26;;;;;;;13.73;3.10;;;;;;;8.75;60.04;102801.09;4972982;28;113495;-83
2024/02/02 07:30:57;;;;;;;13.38;2.78;;;;;;;8.77;59.86;102809.88;4962351;28;114672;-83
2024/02/02 07:33:31;;;;;;;16.17;3.38;;;;;;;8.78;59.79;102805.50;4964550;28;123644;-82
2024/02/02 07:35:59;;;;;;;17.60;3.28;;;;;;;8.81;59.91;102815.16;4966496;28;123623;-83
2024/02/02 07:38:46;;;;;;;18.90;3.35;;;;;;;8.83;60.17;102808.09;4983912;28;115872;-82
2024/02/02 07:41:21;;;;;;;11.57;3.20;;;;;;;8.86;59.97;102797.50;4984565;28;111978;-83
2024/02/02 07:43:49;;;;;;;14.07;3.60;;;;;;;8.88;60.45;102801.03;4963749;28;125243;-83
2024/02/02 07:46:17;;;;;;;17.65;3.75;;;;;;;8.92;60.03;102792.19;4964872;28;123350;-83
2024/02/02 07:48:46;;;;;;;13.52;3.78;;;;;;;8.94;60.32;102795.69;4966749;28;113961;-83
2024/02/02 07:51:16;;;;;;;14.35;4.10;;;;;;;8.97;60.29;102800.97;4958506;28;113338;-83
2024/02/02 07:53:47;;;;;;;19.13;4.60;;;;;;;8.99;60.21;102798.31;4959065;28;123729;-83
2024/02/02 07:56:17;;;;;;;20.27;4.75;;;;;;;9.03;60.13;102806.19;4962560;28;123797;-83
2024/02/02 07:58:44;;;;;;;16.15;4.80;;;;;;;9.05;60.24;102799.13;4963207;28;116412;-83
2024/02/02 08:01:12;;;;;;;18.02;4.97;;;;;;;9.09;60.19;102795.56;4965958;28;113313;-83
2024/02/02 08:03:39;;;;;;;15.52;5.05;;;;;;;9.11;60.31;102793.78;4969644;28;123134;-83
2024/02/02 08:06:06;;;;;;;20.83;6.05;;;;;;;9.14;60.15;102793.78;4992293;28;125579;-83
2024/02/02 08:08:35;;;;;;;16.60;5.70;;;;;;;9.19;60.30;102800.78;4984946;28;114852;-83
2024/02/02 08:11:03;;;;;;;16.77;5.65;;;;;;;9.21;60.42;102793.72;4997597;28;113615;-82
2024/02/02 08:13:31;;;;;;;14.02;5.50;;;;;;;9.24;60.30;102793.72;4968227;28;123671;-83
2024/02/02 08:15:59;;;;;;;15.07;5.43;;;;;;;9.25;60.31;102784.88;4988203;28;123395;-83
2024/02/02 08:18:28;;;;;;;20.77;6.22;;;;;;;9.28;60.46;102791.03;4964697;28;113805;-83
2024/02/02 08:20:55;;;;;;;18.15;6.50;;;;;;;9.30;60.34;102777.78;4996774;28;112356;-84
2024/02/02 08:23:25;;;;;;;18.83;6.15;;;;;;;9.33;60.54;102777.78;4995780;28;123567;-84
2024/02/02 08:25:53;;;;;;;23.38;7.18;;;;;;;9.35;60.54;102776.00;4996086;28;123421;-84
2024/02/02 08:28:20;;;;;;;18.08;7.32;;;;;;;9.37;60.28;102774.22;4984686;28;114161;-84
2024/02/02 08:30:47;;;;;;;20.38;7.32;;;;;;;9.39;60.53;102776.84;4974914;28;113117;-84
2024/02/02 08:33:15;;;;;;;24.05;7.38;;;;;;;9.41;60.38;102775.94;4956390;28;123713;-85
2024/02/02 08:35:43;;;;;;;20.30;7.15;;;;;;;9.44;60.56;102781.19;4971595;28;123794;-84
2024/02/02 08:38:12;;;;;;;17.77;7.40;;;;;;;9.46;60.61;102776.78;4970562;28;112797;-84
2024/02/02 08:40:44;;;;;;;22.63;7.90;;;;;;;9.48;60.64;102780.28;4971297;28;114920;-84
2024/02/02 08:43:14;;;;;;;23.20;7.70;;;;;;;9.50;60.57;102775.84;4983520;28;123752;-84
2024/02/02 08:45:57;;;;;;;27.65;8.25;;;;;;;9.52;60.71;102763.47;4971551;28;124162;-84
2024/02/02 08:48:27;;;;;;;20.98;8.05;;;;;;;9.53;60.65;102765.25;4975882;28;116324;-84
2024/02/02 08:50:57;;;;;;;28.45;8.57;;;;;;;9.54;60.67;102756.41;4973191;28;115189;-84
2024/02/02 08:53:26;;;;;;;27.67;8.45;;;;;;;9.56;60.88;102759.03;4973173;28;125331;-85
2024/02/02 08:55:59;;;;;;;23.33;8.40;;;;;;;9.59;60.54;102758.13;4983311;28;124109;-84
2024/02/02 08:58:31;;;;;;;22.05;8.45;;;;;;;9.63;60.94;102765.16;4955648;28;114089;-84
2024/02/02 09:00:59;;;;;;;28.67;9.00;;;;;;;9.66;60.67;102751.88;4955352;28;114566;-83
2024/02/02 09:03:35;;;;;;;21.67;8.68;;;;;;;9.68;60.75;102753.63;4970411;28;124865;-84
2024/02/02 09:06:07;;;;;;;20.30;8.70;;;;;;;9.70;60.93;102743.00;4954842;28;123001;-85
2024/02/02 09:08:39;;;;;;;27.08;9.50;;;;;;;9.71;60.69;102736.84;4954085;28;115321;-84
2024/02/02 09:11:16;;;;;;;21.48;8.88;;;;;;;9.71;60.73;102736.84;4959856;28;114358;-84
2024/02/02 09:13:44;;;;;;;23.55;9.23;;;;;;;9.74;60.90;102750.91;4955556;28;125117;-84
2024/02/02 09:16:17;;;;;;;24.90;9.50;;;;;;;9.74;60.90;102747.41;4970382;28;123099;-84
2024/02/02 09:18:53;;;;;;;28.45;10.30;;;;;;;9.78;60.92;102749.13;4970402;28;115063;-84
2024/02/02 09:21:27;;;;;;;27.23;10.05;;;;;;;9.81;60.70;102749.06;4942335;28;115175;-84
2024/02/02 09:23:55;;;;;;;24.45;9.02;;;;;;;9.82;60.98;102750.84;4957797;28;123887;-84
2024/02/02 09:26:40;;;;;;;27.20;9.45;;;;;;;9.86;60.81;102752.53;4937994;28;124572;-84
2024/02/02 09:29:09;;;;;;;24.13;9.30;;;;;;;9.90;60.70;102759.56;4950937;28;114585;-85
2024/02/02 09:31:37;;;;;;;25.98;9.13;;;;;;;9.92;60.80;102757.75;4965841;28;115030;-84
2024/02/02 09:34:08;;;;;;;25.42;9.65;;;;;;;9.96;60.93;102750.66;4969717;28;123177;-84
2024/02/02 09:36:38;;;;;;;22.35;9.23;;;;;;;9.99;60.93;102757.72;4967500;28;125279;-84
2024/02/02 09:39:37;;;;;;;23.80;9.30;;;;;;;10.01;60.92;102753.28;4969098;28;114486;-84
2024/02/02 09:42:20;;;;;;;25.33;8.98;;;;;;;10.03;60.93;102757.66;4943530;28;116552;-84
2024/02/02 09:45:01;;;;;;;23.88;9.07;;;;;;;10.07;60.83;102761.13;4969804;28;122700;-85
2024/02/02 09:48:09;;;;;;;24.95;9.20;;;;;;;10.10;60.76;102766.41;4981021;28;124207;-84
2024/02/02 09:51:03;;;;;;;21.90;8.80;;;;;;;10.11;60.70;102768.13;4982462;28;112296;-84
2024/02/02 09:53:43;;;;;;;25.40;9.32;;;;;;;10.14;60.84;102762.81;4960156;28;113750;-84
2024/02/02 09:56:29;;;;;;;25.85;9.32;;;;;;;10.15;60.92;102759.25;4950370;28;124702;-84
2024/02/02 09:59:07;;;;;;;;;;;;;;;10.16;60.60;102750.44;4967187;28;122753;-84
2024/02/02 10:02:04;;;;;;;20.20;7.80;;;;;;;10.18;60.75;102764.53;4959982;28;113243;-84
2024/02/02 10:04:41;;;;;;;27.48;9.07;;;;;;;10.18;60.65;102769.81;4965012;28;113704;-84
2024/02/02 10:07:32;;;;;;;27.05;9.48;;;;;;;10.18;60.87;102763.66;4980575;28;124756;-84
2024/02/02 10:10:36;;;;;;;23.80;9.70;;;;;;;10.18;60.98;102761.88;4964517;28;124018;-83
2024/02/02 10:13:09;;;;;;;29.33;9.88;;;;;;;10.21;60.93;102766.25;4968731;28;115727;-84
2024/02/02 10:16:10;;;;;;;31.55;9.90;;;;;;;10.22;60.75;102763.59;4949748;28;115530;-84
2024/02/02 10:18:54;;;;;;;31.98;10.40;;;;;;;10.25;60.76;102754.75;4950716;28;125171;-84
2024/02/02 10:21:47;;;;;;;30.75;10.48;;;;;;;10.26;61.04;102760.00;4952452;28;125333;-84
2024/02/02 10:24:49;;;;;;;27.90;10.55;;;;;;;10.27;60.82;102759.13;4951770;28;115357;-84
2024/02/02 10:27:31;;;;;;;25.48;11.15;;;;;;;10.30;60.95;102759.13;4938564;28;115855;-84
2024/02/02 10:30:14;;;;;;;24.90;10.73;;;;;;;10.32;60.98;102762.63;4954626;28;126154;-84
2024/02/02 10:33:16;;;;;;;33.40;11.38;;;;;;;10.35;60.83;102751.09;4959543;28;124919;-84
2024/02/02 10:36:02;;;;;;;26.95;10.40;;;;;;;10.39;61.15;102751.94;4942648;28;116168;-85
2024/02/02 10:38:32;;;;;;;31.73;10.77;;;;;;;10.43;61.09;102758.94;4942386;28;116724;-84
2024/02/02 10:41:15;;;;;;;26.45;10.30;;;;;;;10.44;61.16;102750.13;4970193;28;124902;-84
2024/02/02 10:43:59;;;;;;;30.95;11.55;;;;;;;10.48;61.02;102741.22;4973493;28;123741;-84
2024/02/02 10:46:33;;;;;;;25.10;11.00;;;;;;;10.50;60.94;102750.00;4944034;28;116506;-84
2024/02/02 10:49:16;;;;;;;28.03;11.40;;;;;;;10.53;61.03;102750.00;4969995;28;115117;-84
2024/02/02 10:51:56;;;;;;;40.08;12.30;;;;;;;10.54;60.93;102748.19;4962607;28;124082;-84
2024/02/02 10:54:47;;;;;;;32.83;12.52;;;;;;;10.58;61.07;102757.84;4980530;28;124499;-84
2024/02/02 10:57:45;;;;;;;34.25;12.25;;;;;;;10.59;61.11;102749.88;4971430;28;113810;-85
2024/02/02 11:00:17;;;;;;;35.83;11.98;;;;;;;10.63;61.07;102741.00;4971479;28;114013;-84
2024/02/02 11:03:09;;;;;;;32.47;12.10;;;;;;;10.66;61.06;102746.25;4957109;28;124662;-84
2024/02/02 11:05:57;;;;;;;29.73;11.45;;;;;;;10.69;61.11;102732.06;4957855;28;125792;-84
2024/02/02 11:08:28;;;;;;;27.77;11.77;;;;;;;10.74;61.08;102726.69;4954074;28;115399;-84
2024/02/02 11:11:04;;;;;;;28.48;11.48;;;;;;;10.77;61.29;102731.97;4954816;28;114619;-84
2024/02/02 11:13:49;;;;;;;29.80;11.02;;;;;;;10.79;61.02;102725.72;4970436;28;123984;-83
2024/02/02 11:16:45;;;;;;;30.87;11.47;;;;;;;10.83;61.04;102716.84;4954932;28;123527;-84
2024/02/02 11:19:39;;;;;;;32.43;11.10;;;;;;;10.87;61.18;102722.97;4960652;28;115589;-84
2024/02/02 11:22:15;;;;;;;30.40;10.60;;;;;;;10.88;61.14;102704.38;4957793;28;113484;-84
2024/02/02 11:24:57;;;;;;;31.00;10.65;;;;;;;10.89;61.01;102700.84;4948610;28;121920;-84
2024/02/02 11:27:50;;;;;;;27.73;10.30;;;;;;;10.92;61.03;102705.19;4968706;28;122277;-84
2024/02/02 11:30:33;;;;;;;27.95;9.75;;;;;;;10.94;61.09;102698.09;4966270;28;114710;-84
2024/02/02 11:33:16;;;;;;;27.85;9.52;;;;;;;10.95;60.93;102689.25;4946988;28;114434;-84
2024/02/02 11:36:26;;;;;;;28.92;9.65;;;;;;;10.95;60.80;102689.25;4964400;28;125288;-84